sensor_id;sensor_type;location;lat;lon;timestamp;P1;durP1;ratioP1;P2;durP2;ratioP2
8626;SDS011;4351;51.422;6.794;2022-12-07T00:01:17;19.37;;;11.77;;
8626;SDS011;4351;51.422;6.794;2022-12-07T00:03:47;14.67;;;11.20;;
8626;SDS011;4351;51.422;6.794;2022-12-07T00:06:17;18.67;;;11.73;;
8626;SDS011;4351;51.422;6.794;2022-12-07T00:08:45;16.77;;;11.33;;
8626;SDS011;4351;51.422;6.794;2022-12-07T00:11:15;15.27;;;11.37;;
8626;SDS011;4351;51.422;6.794;2022-12-07T00:13:46;16.67;;;11.40;;
8626;SDS011;4351;51.422;6.794;2022-12-07T00:16:15;17.37;;;11.10;;
8626;SDS011;4351;51.422;6.794;2022-12-07T00:18:45;14.87;;;11.60;;
8626;SDS011;4351;51.422;6.794;2022-12-07T00:21:14;15.10;;;11.17;;
8626;SDS011;4351;51.422;6.794;2022-12-07T00:23:43;12.13;;;10.23;;
8626;SDS011;4351;51.422;6.794;2022-12-07T00:26:13;15.00;;;11.87;;
8626;SDS011;4351;51.422;6.794;2022-12-07T00:28:46;14.63;;;10.90;;
8626;SDS011;4351;51.422;6.794;2022-12-07T00:31:15;21.90;;;12.23;;
8626;SDS011;4351;51.422;6.794;2022-12-07T00:33:45;14.43;;;12.20;;
8626;SDS011;4351;51.422;6.794;2022-12-07T00:36:14;14.70;;;11.93;;
8626;SDS011;4351;51.422;6.794;2022-12-07T00:38:50;16.67;;;11.93;;
8626;SDS011;4351;51.422;6.794;2022-12-07T00:41:19;15.10;;;12.33;;
8626;SDS011;4351;51.422;6.794;2022-12-07T00:43:50;15.97;;;12.27;;
8626;SDS011;4351;51.422;6.794;2022-12-07T00:46:19;16.87;;;12.87;;
8626;SDS011;4351;51.422;6.794;2022-12-07T00:48:48;14.37;;;11.63;;
8626;SDS011;4351;51.422;6.794;2022-12-07T00:51:18;15.57;;;11.93;;
8626;SDS011;4351;51.422;6.794;2022-12-07T00:53:48;17.57;;;12.57;;
8626;SDS011;4351;51.422;6.794;2022-12-07T00:56:17;15.20;;;11.77;;
8626;SDS011;4351;51.422;6.794;2022-12-07T00:58:54;16.53;;;12.50;;
8626;SDS011;4351;51.422;6.794;2022-12-07T01:01:24;16.77;;;13.03;;
8626;SDS011;4351;51.422;6.794;2022-12-07T01:03:54;16.50;;;12.20;;
8626;SDS011;4351;51.422;6.794;2022-12-07T01:06:22;16.50;;;12.77;;
8626;SDS011;4351;51.422;6.794;2022-12-07T01:08:51;17.80;;;12.10;;
8626;SDS011;4351;51.422;6.794;2022-12-07T01:11:20;18.90;;;13.00;;
8626;SDS011;4351;51.422;6.794;2022-12-07T01:13:50;15.93;;;12.57;;
8626;SDS011;4351;51.422;6.794;2022-12-07T01:16:21;17.30;;;12.77;;
8626;SDS011;4351;51.422;6.794;2022-12-07T01:18:51;14.00;;;11.43;;
8626;SDS011;4351;51.422;6.794;2022-12-07T01:21:21;19.47;;;14.17;;
8626;SDS011;4351;51.422;6.794;2022-12-07T01:23:50;17.67;;;13.40;;
8626;SDS011;4351;51.422;6.794;2022-12-07T01:26:20;19.63;;;13.73;;
8626;SDS011;4351;51.422;6.794;2022-12-07T01:28:49;19.37;;;13.77;;
8626;SDS011;4351;51.422;6.794;2022-12-07T01:31:20;17.90;;;13.67;;
8626;SDS011;4351;51.422;6.794;2022-12-07T01:33:50;17.40;;;12.87;;
8626;SDS011;4351;51.422;6.794;2022-12-07T01:36:20;16.97;;;12.97;;
8626;SDS011;4351;51.422;6.794;2022-12-07T01:38:50;16.10;;;13.00;;
8626;SDS011;4351;51.422;6.794;2022-12-07T01:41:20;21.23;;;13.67;;
8626;SDS011;4351;51.422;6.794;2022-12-07T01:44:08;19.13;;;13.17;;
8626;SDS011;4351;51.422;6.794;2022-12-07T01:46:40;18.73;;;12.93;;
8626;SDS011;4351;51.422;6.794;2022-12-07T01:49:10;17.80;;;13.40;;
8626;SDS011;4351;51.422;6.794;2022-12-07T01:51:42;17.73;;;13.40;;
8626;SDS011;4351;51.422;6.794;2022-12-07T01:54:12;16.93;;;12.43;;
8626;SDS011;4351;51.422;6.794;2022-12-07T01:56:45;18.93;;;13.20;;
8626;SDS011;4351;51.422;6.794;2022-12-07T01:59:17;17.63;;;12.97;;
8626;SDS011;4351;51.422;6.794;2022-12-07T02:01:48;18.00;;;12.77;;
8626;SDS011;4351;51.422;6.794;2022-12-07T02:04:16;16.87;;;12.93;;
8626;SDS011;4351;51.422;6.794;2022-12-07T02:06:45;16.70;;;12.50;;
8626;SDS011;4351;51.422;6.794;2022-12-07T02:09:14;16.83;;;13.20;;
8626;SDS011;4351;51.422;6.794;2022-12-07T02:11:42;17.87;;;12.50;;
8626;SDS011;4351;51.422;6.794;2022-12-07T02:14:10;17.07;;;12.10;;
8626;SDS011;4351;51.422;6.794;2022-12-07T02:16:42;18.33;;;13.13;;
8626;SDS011;4351;51.422;6.794;2022-12-07T02:19:26;17.47;;;12.50;;
8626;SDS011;4351;51.422;6.794;2022-12-07T02:22:18;15.77;;;11.37;;
8626;SDS011;4351;51.422;6.794;2022-12-07T02:25:02;16.47;;;12.83;;
8626;SDS011;4351;51.422;6.794;2022-12-07T02:27:43;16.67;;;12.27;;
8626;SDS011;4351;51.422;6.794;2022-12-07T02:30:16;17.40;;;13.03;;
8626;SDS011;4351;51.422;6.794;2022-12-07T02:32:48;15.03;;;11.27;;
8626;SDS011;4351;51.422;6.794;2022-12-07T02:35:21;15.93;;;12.00;;
8626;SDS011;4351;51.422;6.794;2022-12-07T02:37:58;18.60;;;13.13;;
8626;SDS011;4351;51.422;6.794;2022-12-07T02:40:31;18.13;;;12.10;;
8626;SDS011;4351;51.422;6.794;2022-12-07T02:43:04;16.43;;;11.73;;
8626;SDS011;4351;51.422;6.794;2022-12-07T02:45:40;18.83;;;13.20;;
8626;SDS011;4351;51.422;6.794;2022-12-07T02:48:10;18.43;;;12.57;;
8626;SDS011;4351;51.422;6.794;2022-12-07T02:50:44;18.60;;;12.47;;
8626;SDS011;4351;51.422;6.794;2022-12-07T02:55:56;17.10;;;12.53;;
8626;SDS011;4351;51.422;6.794;2022-12-07T02:58:27;17.03;;;12.20;;
8626;SDS011;4351;51.422;6.794;2022-12-07T03:01:08;17.33;;;12.10;;
8626;SDS011;4351;51.422;6.794;2022-12-07T03:03:46;21.10;;;12.77;;
8626;SDS011;4351;51.422;6.794;2022-12-07T03:06:20;14.20;;;11.33;;
8626;SDS011;4351;51.422;6.794;2022-12-07T03:08:55;16.43;;;12.30;;
8626;SDS011;4351;51.422;6.794;2022-12-07T03:11:37;17.63;;;12.57;;
8626;SDS011;4351;51.422;6.794;2022-12-07T03:14:13;17.23;;;12.50;;
8626;SDS011;4351;51.422;6.794;2022-12-07T03:16:49;18.30;;;12.20;;
8626;SDS011;4351;51.422;6.794;2022-12-07T03:19:23;17.70;;;12.53;;
8626;SDS011;4351;51.422;6.794;2022-12-07T03:21:55;17.43;;;12.60;;
8626;SDS011;4351;51.422;6.794;2022-12-07T03:24:26;15.80;;;12.07;;
8626;SDS011;4351;51.422;6.794;2022-12-07T03:26:59;17.43;;;12.63;;
8626;SDS011;4351;51.422;6.794;2022-12-07T03:29:34;17.73;;;12.10;;
8626;SDS011;4351;51.422;6.794;2022-12-07T03:32:08;17.70;;;12.17;;
8626;SDS011;4351;51.422;6.794;2022-12-07T03:34:42;15.37;;;11.53;;
8626;SDS011;4351;51.422;6.794;2022-12-07T03:37:17;16.77;;;11.90;;
8626;SDS011;4351;51.422;6.794;2022-12-07T03:39:52;15.20;;;11.83;;
8626;SDS011;4351;51.422;6.794;2022-12-07T03:42:26;16.03;;;11.53;;
8626;SDS011;4351;51.422;6.794;2022-12-07T03:44:55;18.73;;;12.00;;
8626;SDS011;4351;51.422;6.794;2022-12-07T03:47:26;15.67;;;12.63;;
8626;SDS011;4351;51.422;6.794;2022-12-07T03:50:00;16.10;;;11.33;;
8626;SDS011;4351;51.422;6.794;2022-12-07T03:52:36;16.27;;;12.43;;
8626;SDS011;4351;51.422;6.794;2022-12-07T03:55:08;14.53;;;11.13;;
8626;SDS011;4351;51.422;6.794;2022-12-07T03:57:43;15.03;;;11.50;;
8626;SDS011;4351;51.422;6.794;2022-12-07T04:00:14;18.10;;;12.50;;
8626;SDS011;4351;51.422;6.794;2022-12-07T04:02:43;18.80;;;13.17;;
8626;SDS011;4351;51.422;6.794;2022-12-07T04:05:11;15.83;;;11.57;;
8626;SDS011;4351;51.422;6.794;2022-12-07T04:07:39;19.83;;;13.10;;
8626;SDS011;4351;51.422;6.794;2022-12-07T04:10:09;17.40;;;12.30;;
8626;SDS011;4351;51.422;6.794;2022-12-07T04:12:37;14.83;;;10.50;;
8626;SDS011;4351;51.422;6.794;2022-12-07T04:15:06;18.07;;;12.00;;
8626;SDS011;4351;51.422;6.794;2022-12-07T04:17:35;16.37;;;11.97;;
8626;SDS011;4351;51.422;6.794;2022-12-07T04:20:05;17.77;;;11.47;;
8626;SDS011;4351;51.422;6.794;2022-12-07T04:22:34;15.17;;;11.33;;
8626;SDS011;4351;51.422;6.794;2022-12-07T04:25:02;19.27;;;12.40;;
8626;SDS011;4351;51.422;6.794;2022-12-07T04:27:31;16.47;;;12.07;;
8626;SDS011;4351;51.422;6.794;2022-12-07T04:29:59;16.30;;;11.80;;
8626;SDS011;4351;51.422;6.794;2022-12-07T04:32:27;17.20;;;13.00;;
8626;SDS011;4351;51.422;6.794;2022-12-07T04:34:55;17.77;;;12.13;;
8626;SDS011;4351;51.422;6.794;2022-12-07T04:37:24;15.67;;;11.63;;
8626;SDS011;4351;51.422;6.794;2022-12-07T04:39:53;14.80;;;10.43;;
8626;SDS011;4351;51.422;6.794;2022-12-07T04:42:20;17.27;;;12.20;;
8626;SDS011;4351;51.422;6.794;2022-12-07T04:44:48;16.00;;;11.53;;
8626;SDS011;4351;51.422;6.794;2022-12-07T04:47:17;14.57;;;11.23;;
8626;SDS011;4351;51.422;6.794;2022-12-07T04:49:45;15.63;;;10.90;;
8626;SDS011;4351;51.422;6.794;2022-12-07T04:52:13;14.53;;;10.70;;
8626;SDS011;4351;51.422;6.794;2022-12-07T04:54:42;16.27;;;11.10;;
8626;SDS011;4351;51.422;6.794;2022-12-07T04:57:10;17.03;;;11.33;;
8626;SDS011;4351;51.422;6.794;2022-12-07T04:59:38;17.30;;;10.83;;
8626;SDS011;4351;51.422;6.794;2022-12-07T05:02:11;17.33;;;11.63;;
8626;SDS011;4351;51.422;6.794;2022-12-07T05:04:39;14.67;;;10.53;;
8626;SDS011;4351;51.422;6.794;2022-12-07T05:07:07;16.93;;;11.07;;
8626;SDS011;4351;51.422;6.794;2022-12-07T05:09:35;14.57;;;10.30;;
8626;SDS011;4351;51.422;6.794;2022-12-07T05:12:04;16.77;;;10.90;;
8626;SDS011;4351;51.422;6.794;2022-12-07T05:14:32;13.53;;;10.47;;
8626;SDS011;4351;51.422;6.794;2022-12-07T05:17:00;16.93;;;11.20;;
8626;SDS011;4351;51.422;6.794;2022-12-07T05:19:29;17.23;;;10.43;;
8626;SDS011;4351;51.422;6.794;2022-12-07T05:21:57;14.70;;;10.10;;
8626;SDS011;4351;51.422;6.794;2022-12-07T05:24:25;16.50;;;10.10;;
8626;SDS011;4351;51.422;6.794;2022-12-07T05:26:53;15.43;;;10.17;;
8626;SDS011;4351;51.422;6.794;2022-12-07T05:29:23;17.67;;;10.70;;
8626;SDS011;4351;51.422;6.794;2022-12-07T05:31:50;14.47;;;10.27;;
8626;SDS011;4351;51.422;6.794;2022-12-07T05:34:19;15.90;;;9.50;;
8626;SDS011;4351;51.422;6.794;2022-12-07T05:36:46;16.60;;;10.03;;
8626;SDS011;4351;51.422;6.794;2022-12-07T05:39:15;18.47;;;10.40;;
8626;SDS011;4351;51.422;6.794;2022-12-07T05:41:43;15.73;;;10.07;;
8626;SDS011;4351;51.422;6.794;2022-12-07T05:44:30;15.17;;;9.93;;
8626;SDS011;4351;51.422;6.794;2022-12-07T05:46:58;15.67;;;9.17;;
8626;SDS011;4351;51.422;6.794;2022-12-07T05:49:26;16.10;;;10.10;;
8626;SDS011;4351;51.422;6.794;2022-12-07T05:51:54;16.00;;;9.90;;
8626;SDS011;4351;51.422;6.794;2022-12-07T05:54:22;13.33;;;9.77;;
8626;SDS011;4351;51.422;6.794;2022-12-07T05:56:50;13.77;;;8.73;;
8626;SDS011;4351;51.422;6.794;2022-12-07T05:59:18;14.00;;;9.87;;
8626;SDS011;4351;51.422;6.794;2022-12-07T06:01:52;16.80;;;9.27;;
8626;SDS011;4351;51.422;6.794;2022-12-07T06:04:22;14.43;;;9.67;;
8626;SDS011;4351;51.422;6.794;2022-12-07T06:06:51;16.23;;;9.60;;
8626;SDS011;4351;51.422;6.794;2022-12-07T06:09:20;14.20;;;9.70;;
8626;SDS011;4351;51.422;6.794;2022-12-07T06:11:49;16.57;;;9.40;;
8626;SDS011;4351;51.422;6.794;2022-12-07T06:14:35;13.57;;;9.13;;
8626;SDS011;4351;51.422;6.794;2022-12-07T06:17:05;13.27;;;9.10;;
8626;SDS011;4351;51.422;6.794;2022-12-07T06:19:34;17.10;;;10.27;;
8626;SDS011;4351;51.422;6.794;2022-12-07T06:22:02;14.87;;;9.47;;
8626;SDS011;4351;51.422;6.794;2022-12-07T06:24:31;15.03;;;9.33;;
8626;SDS011;4351;51.422;6.794;2022-12-07T06:27:00;15.27;;;9.73;;
8626;SDS011;4351;51.422;6.794;2022-12-07T06:29:28;16.47;;;9.43;;
8626;SDS011;4351;51.422;6.794;2022-12-07T06:31:56;14.63;;;9.17;;
8626;SDS011;4351;51.422;6.794;2022-12-07T06:34:26;12.37;;;9.03;;
8626;SDS011;4351;51.422;6.794;2022-12-07T06:36:54;14.70;;;8.97;;
8626;SDS011;4351;51.422;6.794;2022-12-07T06:39:23;15.43;;;9.40;;
8626;SDS011;4351;51.422;6.794;2022-12-07T06:41:53;17.43;;;9.40;;
8626;SDS011;4351;51.422;6.794;2022-12-07T06:44:22;12.13;;;8.50;;
8626;SDS011;4351;51.422;6.794;2022-12-07T06:46:51;13.77;;;9.00;;
8626;SDS011;4351;51.422;6.794;2022-12-07T06:49:40;13.83;;;9.27;;
8626;SDS011;4351;51.422;6.794;2022-12-07T06:52:08;14.60;;;9.10;;
8626;SDS011;4351;51.422;6.794;2022-12-07T06:54:37;13.33;;;8.73;;
8626;SDS011;4351;51.422;6.794;2022-12-07T06:57:05;11.93;;;8.93;;
8626;SDS011;4351;51.422;6.794;2022-12-07T06:59:32;14.20;;;9.40;;
8626;SDS011;4351;51.422;6.794;2022-12-07T07:02:00;15.07;;;8.73;;
8626;SDS011;4351;51.422;6.794;2022-12-07T07:04:28;15.20;;;9.40;;
8626;SDS011;4351;51.422;6.794;2022-12-07T07:06:58;15.17;;;9.47;;
8626;SDS011;4351;51.422;6.794;2022-12-07T07:09:26;13.80;;;8.40;;
8626;SDS011;4351;51.422;6.794;2022-12-07T07:11:54;14.40;;;9.00;;
8626;SDS011;4351;51.422;6.794;2022-12-07T07:14:22;15.63;;;9.10;;
8626;SDS011;4351;51.422;6.794;2022-12-07T07:16:50;13.77;;;8.73;;
8626;SDS011;4351;51.422;6.794;2022-12-07T07:19:18;14.13;;;9.30;;
8626;SDS011;4351;51.422;6.794;2022-12-07T07:21:46;11.67;;;8.30;;
8626;SDS011;4351;51.422;6.794;2022-12-07T07:24:15;15.50;;;9.50;;
8626;SDS011;4351;51.422;6.794;2022-12-07T07:26:43;15.83;;;9.73;;
8626;SDS011;4351;51.422;6.794;2022-12-07T07:29:11;17.67;;;9.80;;
8626;SDS011;4351;51.422;6.794;2022-12-07T07:31:39;16.63;;;9.70;;
8626;SDS011;4351;51.422;6.794;2022-12-07T07:34:07;14.53;;;9.40;;
8626;SDS011;4351;51.422;6.794;2022-12-07T07:36:35;14.67;;;9.17;;
8626;SDS011;4351;51.422;6.794;2022-12-07T07:39:03;15.93;;;10.03;;
8626;SDS011;4351;51.422;6.794;2022-12-07T07:41:33;16.50;;;10.00;;
8626;SDS011;4351;51.422;6.794;2022-12-07T07:44:02;15.40;;;11.00;;
8626;SDS011;4351;51.422;6.794;2022-12-07T07:46:30;15.20;;;10.00;;
8626;SDS011;4351;51.422;6.794;2022-12-07T07:48:59;14.10;;;9.90;;
8626;SDS011;4351;51.422;6.794;2022-12-07T07:51:27;14.97;;;9.63;;
8626;SDS011;4351;51.422;6.794;2022-12-07T07:53:55;15.17;;;9.43;;
8626;SDS011;4351;51.422;6.794;2022-12-07T07:56:23;15.37;;;9.50;;
8626;SDS011;4351;51.422;6.794;2022-12-07T07:58:53;16.00;;;9.90;;
8626;SDS011;4351;51.422;6.794;2022-12-07T08:01:21;12.60;;;9.50;;
8626;SDS011;4351;51.422;6.794;2022-12-07T08:03:49;14.93;;;9.80;;
8626;SDS011;4351;51.422;6.794;2022-12-07T08:06:17;14.07;;;9.40;;
8626;SDS011;4351;51.422;6.794;2022-12-07T08:08:45;16.27;;;9.43;;
8626;SDS011;4351;51.422;6.794;2022-12-07T08:11:13;14.67;;;9.47;;
8626;SDS011;4351;51.422;6.794;2022-12-07T08:13:41;12.90;;;9.10;;
8626;SDS011;4351;51.422;6.794;2022-12-07T08:16:10;15.67;;;10.00;;
8626;SDS011;4351;51.422;6.794;2022-12-07T08:18:39;15.53;;;9.63;;
8626;SDS011;4351;51.422;6.794;2022-12-07T08:21:09;16.23;;;9.57;;
8626;SDS011;4351;51.422;6.794;2022-12-07T08:23:39;16.23;;;8.93;;
8626;SDS011;4351;51.422;6.794;2022-12-07T08:26:08;15.07;;;8.57;;
8626;SDS011;4351;51.422;6.794;2022-12-07T08:28:38;13.60;;;8.30;;
8626;SDS011;4351;51.422;6.794;2022-12-07T08:31:07;13.77;;;8.50;;
8626;SDS011;4351;51.422;6.794;2022-12-07T08:33:39;9.90;;;7.37;;
8626;SDS011;4351;51.422;6.794;2022-12-07T08:36:08;16.53;;;9.70;;
8626;SDS011;4351;51.422;6.794;2022-12-07T08:38:37;12.20;;;8.30;;
8626;SDS011;4351;51.422;6.794;2022-12-07T08:41:17;10.47;;;7.83;;
8626;SDS011;4351;51.422;6.794;2022-12-07T08:43:45;13.50;;;8.10;;
8626;SDS011;4351;51.422;6.794;2022-12-07T08:46:15;14.80;;;7.60;;
8626;SDS011;4351;51.422;6.794;2022-12-07T08:48:50;11.53;;;7.60;;
8626;SDS011;4351;51.422;6.794;2022-12-07T08:51:22;12.07;;;8.03;;
8626;SDS011;4351;51.422;6.794;2022-12-07T08:53:50;14.93;;;7.47;;
8626;SDS011;4351;51.422;6.794;2022-12-07T08:56:19;11.93;;;7.83;;
8626;SDS011;4351;51.422;6.794;2022-12-07T08:58:48;10.20;;;6.93;;
8626;SDS011;4351;51.422;6.794;2022-12-07T09:01:16;13.80;;;7.57;;
8626;SDS011;4351;51.422;6.794;2022-12-07T09:03:44;11.83;;;7.43;;
8626;SDS011;4351;51.422;6.794;2022-12-07T09:06:13;13.13;;;7.50;;
8626;SDS011;4351;51.422;6.794;2022-12-07T09:08:43;11.23;;;7.37;;
8626;SDS011;4351;51.422;6.794;2022-12-07T09:11:14;14.40;;;7.97;;
8626;SDS011;4351;51.422;6.794;2022-12-07T09:13:42;11.83;;;7.00;;
8626;SDS011;4351;51.422;6.794;2022-12-07T09:16:10;12.17;;;7.40;;
8626;SDS011;4351;51.422;6.794;2022-12-07T09:18:39;13.70;;;7.67;;
8626;SDS011;4351;51.422;6.794;2022-12-07T09:21:07;12.60;;;7.40;;
8626;SDS011;4351;51.422;6.794;2022-12-07T09:23:37;11.50;;;6.97;;
8626;SDS011;4351;51.422;6.794;2022-12-07T09:26:04;12.93;;;7.47;;
8626;SDS011;4351;51.422;6.794;2022-12-07T09:28:36;12.00;;;7.43;;
8626;SDS011;4351;51.422;6.794;2022-12-07T09:31:04;10.23;;;6.97;;
8626;SDS011;4351;51.422;6.794;2022-12-07T09:33:52;12.20;;;6.83;;
8626;SDS011;4351;51.422;6.794;2022-12-07T09:36:21;11.20;;;6.80;;
8626;SDS011;4351;51.422;6.794;2022-12-07T09:38:50;10.03;;;6.57;;
8626;SDS011;4351;51.422;6.794;2022-12-07T09:41:18;11.50;;;6.10;;
8626;SDS011;4351;51.422;6.794;2022-12-07T09:43:48;12.00;;;6.40;;
8626;SDS011;4351;51.422;6.794;2022-12-07T09:46:16;10.87;;;6.03;;
8626;SDS011;4351;51.422;6.794;2022-12-07T09:48:48;10.77;;;6.43;;
8626;SDS011;4351;51.422;6.794;2022-12-07T09:51:18;8.97;;;6.30;;
8626;SDS011;4351;51.422;6.794;2022-12-07T09:53:53;11.03;;;6.57;;
8626;SDS011;4351;51.422;6.794;2022-12-07T09:56:23;13.70;;;6.83;;
8626;SDS011;4351;51.422;6.794;2022-12-07T09:58:54;11.43;;;6.37;;
8626;SDS011;4351;51.422;6.794;2022-12-07T10:01:28;15.67;;;6.60;;
8626;SDS011;4351;51.422;6.794;2022-12-07T10:04:00;11.23;;;6.10;;
8626;SDS011;4351;51.422;6.794;2022-12-07T10:06:33;8.30;;;5.10;;
8626;SDS011;4351;51.422;6.794;2022-12-07T10:09:07;14.30;;;6.20;;
8626;SDS011;4351;51.422;6.794;2022-12-07T10:14:27;11.30;;;5.57;;
8626;SDS011;4351;51.422;6.794;2022-12-07T10:17:27;9.20;;;5.07;;
8626;SDS011;4351;51.422;6.794;2022-12-07T10:20:15;12.37;;;5.60;;
8626;SDS011;4351;51.422;6.794;2022-12-07T10:22:55;10.83;;;5.60;;
8626;SDS011;4351;51.422;6.794;2022-12-07T10:25:27;10.37;;;5.50;;
8626;SDS011;4351;51.422;6.794;2022-12-07T10:28:10;7.50;;;4.53;;
8626;SDS011;4351;51.422;6.794;2022-12-07T10:30:51;7.90;;;4.40;;
8626;SDS011;4351;51.422;6.794;2022-12-07T10:33:28;8.47;;;4.87;;
8626;SDS011;4351;51.422;6.794;2022-12-07T10:35:57;11.47;;;5.30;;
8626;SDS011;4351;51.422;6.794;2022-12-07T10:38:26;10.07;;;4.57;;
8626;SDS011;4351;51.422;6.794;2022-12-07T10:41:04;17.23;;;6.93;;
8626;SDS011;4351;51.422;6.794;2022-12-07T10:43:33;9.63;;;5.57;;
8626;SDS011;4351;51.422;6.794;2022-12-07T10:46:22;11.03;;;5.30;;
8626;SDS011;4351;51.422;6.794;2022-12-07T10:49:04;8.77;;;5.30;;
8626;SDS011;4351;51.422;6.794;2022-12-07T10:51:45;9.60;;;4.80;;
8626;SDS011;4351;51.422;6.794;2022-12-07T10:54:21;11.60;;;4.93;;
8626;SDS011;4351;51.422;6.794;2022-12-07T10:57:00;9.07;;;4.03;;
8626;SDS011;4351;51.422;6.794;2022-12-07T10:59:45;8.13;;;4.03;;
8626;SDS011;4351;51.422;6.794;2022-12-07T11:02:33;10.70;;;4.73;;
8626;SDS011;4351;51.422;6.794;2022-12-07T11:05:14;8.63;;;4.40;;
8626;SDS011;4351;51.422;6.794;2022-12-07T11:07:51;13.03;;;3.90;;
8626;SDS011;4351;51.422;6.794;2022-12-07T11:10:30;8.90;;;4.27;;
8626;SDS011;4351;51.422;6.794;2022-12-07T11:13:16;9.00;;;4.53;;
8626;SDS011;4351;51.422;6.794;2022-12-07T11:15:57;6.53;;;4.20;;
8626;SDS011;4351;51.422;6.794;2022-12-07T11:18:34;11.07;;;3.90;;
8626;SDS011;4351;51.422;6.794;2022-12-07T11:21:13;8.63;;;4.50;;
8626;SDS011;4351;51.422;6.794;2022-12-07T11:23:49;12.07;;;4.07;;
8626;SDS011;4351;51.422;6.794;2022-12-07T11:26:30;9.80;;;4.70;;
8626;SDS011;4351;51.422;6.794;2022-12-07T11:29:14;9.87;;;4.13;;
8626;SDS011;4351;51.422;6.794;2022-12-07T11:31:57;10.03;;;4.53;;
8626;SDS011;4351;51.422;6.794;2022-12-07T11:34:34;9.20;;;4.20;;
8626;SDS011;4351;51.422;6.794;2022-12-07T11:37:08;8.90;;;4.10;;
8626;SDS011;4351;51.422;6.794;2022-12-07T11:39:41;10.30;;;3.97;;
8626;SDS011;4351;51.422;6.794;2022-12-07T11:42:16;9.67;;;3.83;;
8626;SDS011;4351;51.422;6.794;2022-12-07T11:44:50;7.23;;;3.80;;
8626;SDS011;4351;51.422;6.794;2022-12-07T11:47:25;11.20;;;4.10;;
8626;SDS011;4351;51.422;6.794;2022-12-07T11:50:01;9.10;;;3.97;;
8626;SDS011;4351;51.422;6.794;2022-12-07T11:52:40;11.40;;;3.87;;
8626;SDS011;4351;51.422;6.794;2022-12-07T11:55:16;7.67;;;3.53;;
8626;SDS011;4351;51.422;6.794;2022-12-07T11:57:50;9.57;;;3.57;;
8626;SDS011;4351;51.422;6.794;2022-12-07T12:00:24;7.73;;;3.57;;
8626;SDS011;4351;51.422;6.794;2022-12-07T12:02:53;10.57;;;3.60;;
8626;SDS011;4351;51.422;6.794;2022-12-07T12:05:28;7.00;;;3.23;;
8626;SDS011;4351;51.422;6.794;2022-12-07T12:07:59;9.00;;;3.67;;
8626;SDS011;4351;51.422;6.794;2022-12-07T12:10:59;7.80;;;3.50;;
8626;SDS011;4351;51.422;6.794;2022-12-07T12:13:42;8.97;;;3.80;;
8626;SDS011;4351;51.422;6.794;2022-12-07T12:19:45;8.97;;;4.00;;
8626;SDS011;4351;51.422;6.794;2022-12-07T12:22:32;12.07;;;5.63;;
8626;SDS011;4351;51.422;6.794;2022-12-07T12:25:04;6.43;;;4.00;;
8626;SDS011;4351;51.422;6.794;2022-12-07T12:27:34;7.37;;;3.67;;
8626;SDS011;4351;51.422;6.794;2022-12-07T12:30:05;7.53;;;3.50;;
8626;SDS011;4351;51.422;6.794;2022-12-07T12:32:36;6.37;;;3.00;;
8626;SDS011;4351;51.422;6.794;2022-12-07T12:35:20;9.63;;;2.93;;
8626;SDS011;4351;51.422;6.794;2022-12-07T12:37:57;8.27;;;3.23;;
8626;SDS011;4351;51.422;6.794;2022-12-07T12:41:08;8.20;;;2.97;;
8626;SDS011;4351;51.422;6.794;2022-12-07T12:47:39;8.93;;;3.37;;
8626;SDS011;4351;51.422;6.794;2022-12-07T12:50:16;8.57;;;3.17;;
8626;SDS011;4351;51.422;6.794;2022-12-07T12:52:53;6.10;;;3.27;;
8626;SDS011;4351;51.422;6.794;2022-12-07T13:04:51;7.90;;;2.80;;
8626;SDS011;4351;51.422;6.794;2022-12-07T13:10:24;8.17;;;3.80;;
8626;SDS011;4351;51.422;6.794;2022-12-07T13:22:40;9.23;;;3.43;;
8626;SDS011;4351;51.422;6.794;2022-12-07T13:25:18;11.77;;;5.20;;
8626;SDS011;4351;51.422;6.794;2022-12-07T13:27:54;8.03;;;4.60;;
8626;SDS011;4351;51.422;6.794;2022-12-07T13:30:25;10.70;;;4.93;;
8626;SDS011;4351;51.422;6.794;2022-12-07T13:32:55;9.40;;;4.67;;
8626;SDS011;4351;51.422;6.794;2022-12-07T13:35:29;9.23;;;3.37;;
8626;SDS011;4351;51.422;6.794;2022-12-07T13:38:01;7.03;;;4.00;;
8626;SDS011;4351;51.422;6.794;2022-12-07T13:40:31;8.30;;;3.83;;
8626;SDS011;4351;51.422;6.794;2022-12-07T13:42:59;7.70;;;4.00;;
8626;SDS011;4351;51.422;6.794;2022-12-07T13:45:29;9.10;;;4.40;;
8626;SDS011;4351;51.422;6.794;2022-12-07T13:48:19;7.13;;;3.83;;
8626;SDS011;4351;51.422;6.794;2022-12-07T13:50:54;8.17;;;3.53;;
8626;SDS011;4351;51.422;6.794;2022-12-07T13:53:25;8.90;;;3.40;;
8626;SDS011;4351;51.422;6.794;2022-12-07T13:55:56;8.10;;;3.50;;
8626;SDS011;4351;51.422;6.794;2022-12-07T13:58:26;9.63;;;3.83;;
8626;SDS011;4351;51.422;6.794;2022-12-07T14:00:57;7.40;;;3.70;;
8626;SDS011;4351;51.422;6.794;2022-12-07T14:03:31;10.83;;;3.53;;
8626;SDS011;4351;51.422;6.794;2022-12-07T14:06:04;13.03;;;4.10;;
8626;SDS011;4351;51.422;6.794;2022-12-07T14:08:41;7.80;;;3.20;;
8626;SDS011;4351;51.422;6.794;2022-12-07T14:11:11;10.43;;;3.20;;
8626;SDS011;4351;51.422;6.794;2022-12-07T14:13:56;5.87;;;2.60;;
8626;SDS011;4351;51.422;6.794;2022-12-07T14:16:27;4.67;;;2.60;;
8626;SDS011;4351;51.422;6.794;2022-12-07T14:18:58;8.30;;;3.13;;
8626;SDS011;4351;51.422;6.794;2022-12-07T14:21:28;7.33;;;2.83;;
8626;SDS011;4351;51.422;6.794;2022-12-07T14:24:12;5.50;;;2.30;;
8626;SDS011;4351;51.422;6.794;2022-12-07T14:26:44;5.17;;;3.37;;
8626;SDS011;4351;51.422;6.794;2022-12-07T14:29:33;5.67;;;2.80;;
8626;SDS011;4351;51.422;6.794;2022-12-07T14:34:53;9.67;;;2.80;;
8626;SDS011;4351;51.422;6.794;2022-12-07T14:37:26;8.40;;;3.20;;
8626;SDS011;4351;51.422;6.794;2022-12-07T14:39:56;9.47;;;3.13;;
8626;SDS011;4351;51.422;6.794;2022-12-07T14:42:26;9.63;;;2.77;;
8626;SDS011;4351;51.422;6.794;2022-12-07T14:44:56;12.00;;;3.43;;
8626;SDS011;4351;51.422;6.794;2022-12-07T14:47:25;8.97;;;2.80;;
8626;SDS011;4351;51.422;6.794;2022-12-07T14:50:14;12.83;;;3.20;;
8626;SDS011;4351;51.422;6.794;2022-12-07T14:52:44;9.90;;;2.80;;
8626;SDS011;4351;51.422;6.794;2022-12-07T14:55:37;8.90;;;3.27;;
8626;SDS011;4351;51.422;6.794;2022-12-07T14:58:05;7.63;;;3.30;;
8626;SDS011;4351;51.422;6.794;2022-12-07T15:00:33;11.80;;;3.67;;
8626;SDS011;4351;51.422;6.794;2022-12-07T15:03:01;9.63;;;3.67;;
8626;SDS011;4351;51.422;6.794;2022-12-07T15:05:29;9.40;;;3.17;;
8626;SDS011;4351;51.422;6.794;2022-12-07T15:07:57;7.77;;;2.70;;
8626;SDS011;4351;51.422;6.794;2022-12-07T15:10:26;7.40;;;2.70;;
8626;SDS011;4351;51.422;6.794;2022-12-07T15:12:57;6.43;;;2.73;;
8626;SDS011;4351;51.422;6.794;2022-12-07T15:15:47;10.80;;;3.50;;
8626;SDS011;4351;51.422;6.794;2022-12-07T15:18:16;9.37;;;3.57;;
8626;SDS011;4351;51.422;6.794;2022-12-07T15:20:44;9.47;;;3.20;;
8626;SDS011;4351;51.422;6.794;2022-12-07T15:23:13;10.10;;;3.60;;
8626;SDS011;4351;51.422;6.794;2022-12-07T15:25:42;6.70;;;3.37;;
8626;SDS011;4351;51.422;6.794;2022-12-07T15:28:12;10.27;;;3.97;;
8626;SDS011;4351;51.422;6.794;2022-12-07T15:30:41;7.43;;;3.43;;
8626;SDS011;4351;51.422;6.794;2022-12-07T15:33:10;9.00;;;3.30;;
8626;SDS011;4351;51.422;6.794;2022-12-07T15:35:39;7.00;;;3.13;;
8626;SDS011;4351;51.422;6.794;2022-12-07T15:38:07;10.70;;;3.90;;
8626;SDS011;4351;51.422;6.794;2022-12-07T15:40:35;6.47;;;3.30;;
8626;SDS011;4351;51.422;6.794;2022-12-07T15:43:03;6.70;;;3.63;;
8626;SDS011;4351;51.422;6.794;2022-12-07T15:45:32;6.93;;;3.10;;
8626;SDS011;4351;51.422;6.794;2022-12-07T15:47:59;14.33;;;4.33;;
8626;SDS011;4351;51.422;6.794;2022-12-07T15:50:47;12.97;;;4.00;;
8626;SDS011;4351;51.422;6.794;2022-12-07T15:53:15;12.57;;;3.77;;
8626;SDS011;4351;51.422;6.794;2022-12-07T15:55:43;7.60;;;3.83;;
8626;SDS011;4351;51.422;6.794;2022-12-07T15:58:11;14.00;;;4.30;;
8626;SDS011;4351;51.422;6.794;2022-12-07T16:00:40;7.67;;;4.60;;
8626;SDS011;4351;51.422;6.794;2022-12-07T16:03:08;8.53;;;4.30;;
8626;SDS011;4351;51.422;6.794;2022-12-07T16:05:36;10.07;;;5.17;;
8626;SDS011;4351;51.422;6.794;2022-12-07T16:08:05;12.03;;;4.93;;